createdAt,value
2018-05-13T00:00:50.619Z,11.10
2018-05-13T00:03:17.053Z,11.10
2018-05-13T00:05:43.415Z,11.00
2018-05-13T00:08:09.867Z,11.10
2018-05-13T00:10:36.433Z,10.90
2018-05-13T00:13:02.839Z,11.00
2018-05-13T00:15:29.237Z,10.80
2018-05-13T00:17:55.902Z,10.80
2018-05-13T00:20:23.297Z,10.80
2018-05-13T00:22:51.504Z,10.60
2018-05-13T00:25:17.938Z,10.60
2018-05-13T00:27:44.377Z,10.50
2018-05-13T00:30:12.784Z,10.60
2018-05-13T00:32:40.634Z,10.70
2018-05-13T00:35:07.124Z,10.50
2018-05-13T00:37:33.985Z,10.60
2018-05-13T00:40:01.176Z,10.60
2018-05-13T00:42:28.176Z,10.60
2018-05-13T00:44:57.897Z,10.60
2018-05-13T00:47:24.837Z,10.60
2018-05-13T00:50:02.138Z,10.30
2018-05-13T00:52:29.576Z,10.70
2018-05-13T00:54:57.375Z,10.60
2018-05-13T00:57:24.112Z,10.50
2018-05-13T00:59:51.639Z,10.60
2018-05-13T01:02:17.999Z,10.50
2018-05-13T01:04:45.834Z,10.40
2018-05-13T01:07:12.304Z,10.20
2018-05-13T01:09:38.741Z,10.40
2018-05-13T01:12:05.129Z,10.30
2018-05-13T01:17:22.624Z,10.20
2018-05-13T01:19:49.286Z,10.10
2018-05-13T01:22:15.466Z,10.30
2018-05-13T01:24:41.768Z,10.30
2018-05-13T01:27:08.429Z,10.10
2018-05-13T01:29:35.014Z,9.90
2018-05-13T01:32:01.272Z,10.00
2018-05-13T01:36:55.513Z,10.00
2018-05-13T01:39:21.815Z,10.00
2018-05-13T01:41:48.781Z,10.00
2018-05-13T01:44:15.112Z,10.00
2018-05-13T01:46:41.487Z,10.10
2018-05-13T01:49:07.719Z,10.00
2018-05-13T01:51:34.747Z,10.00
2018-05-13T01:54:01.350Z,9.90
2018-05-13T01:56:27.655Z,9.90
2018-05-13T01:58:53.847Z,9.90
2018-05-13T02:01:20.615Z,9.90
2018-05-13T02:03:46.823Z,9.80
2018-05-13T02:06:13.175Z,9.80
2018-05-13T02:08:39.781Z,9.80
2018-05-13T02:11:06.021Z,9.80
2018-05-13T02:13:32.378Z,9.80
2018-05-13T02:15:59.282Z,9.90
2018-05-13T02:18:25.570Z,9.90
2018-05-13T02:20:51.999Z,9.80
2018-05-13T02:23:18.333Z,9.90
2018-05-13T02:25:44.661Z,9.60
2018-05-13T02:28:10.929Z,9.80
2018-05-13T02:30:37.204Z,9.90
2018-05-13T02:33:04.301Z,9.80
2018-05-13T02:35:30.939Z,9.90
2018-05-13T02:37:57.292Z,9.80
2018-05-13T02:40:23.928Z,9.50
2018-05-13T02:42:50.849Z,9.70
2018-05-13T02:45:18.298Z,9.70
2018-05-13T02:50:12.771Z,9.70
2018-05-13T02:52:39.092Z,9.60
2018-05-13T02:55:05.356Z,9.70
2018-05-13T02:57:32.425Z,9.10
2018-05-13T02:59:59.591Z,9.80
2018-05-13T03:02:25.813Z,9.80
2018-05-13T03:04:52.099Z,9.90
2018-05-13T03:07:19.898Z,10.00
2018-05-13T03:09:46.108Z,10.00
2018-05-13T03:12:12.411Z,10.10
2018-05-13T03:14:38.755Z,9.90
2018-05-13T03:17:05.029Z,10.20
2018-05-13T03:19:31.252Z,10.30
2018-05-13T03:21:58.274Z,10.30
2018-05-13T03:24:24.583Z,10.40
2018-05-13T03:26:50.870Z,10.60
2018-05-13T03:29:17.121Z,10.50
2018-05-13T03:31:43.373Z,10.50
2018-05-13T03:34:09.647Z,10.60
2018-05-13T03:36:35.909Z,10.60
2018-05-13T03:39:02.624Z,10.70
2018-05-13T03:41:28.911Z,10.90
2018-05-13T03:43:55.136Z,11.20
2018-05-13T03:46:21.311Z,10.90
2018-05-13T03:48:47.500Z,10.80
2018-05-13T03:51:13.730Z,11.20
2018-05-13T03:53:39.951Z,11.20
2018-05-13T03:56:07.281Z,11.20
2018-05-13T03:58:33.636Z,11.40
2018-05-13T04:01:00.358Z,11.30
2018-05-13T04:03:26.562Z,11.40
2018-05-13T04:05:52.913Z,11.40
2018-05-13T04:11:33.450Z,11.60
2018-05-13T04:14:12.472Z,11.70
2018-05-13T04:16:38.778Z,11.90
2018-05-13T04:19:05.800Z,11.90
2018-05-13T04:21:32.826Z,12.10
2018-05-13T04:23:59.295Z,12.30
2018-05-13T04:26:26.018Z,11.90
2018-05-13T04:28:52.479Z,12.30
2018-05-13T04:33:47.658Z,12.40
2018-05-13T04:36:13.874Z,12.50
2018-05-13T04:38:40.204Z,12.60
2018-05-13T04:41:06.548Z,12.60
2018-05-13T04:43:33.896Z,12.60
2018-05-13T04:46:00.184Z,12.70
2018-05-13T04:48:26.559Z,13.00
2018-05-13T04:50:54.296Z,12.90
2018-05-13T04:53:20.616Z,12.90
2018-05-13T04:55:47.301Z,13.00
2018-05-13T04:58:13.903Z,13.20
2018-05-13T05:00:40.235Z,13.40
2018-05-13T05:03:06.465Z,13.50
2018-05-13T05:05:32.767Z,13.70
2018-05-13T05:07:59.695Z,13.80
2018-05-13T05:10:25.917Z,13.80
2018-05-13T05:12:52.153Z,13.90
2018-05-13T05:15:18.968Z,13.90
2018-05-13T05:17:45.245Z,14.10
2018-05-13T05:20:11.425Z,14.10
2018-05-13T05:22:38.955Z,14.20
2018-05-13T05:25:05.377Z,14.30
2018-05-13T05:27:33.340Z,14.30
2018-05-13T05:29:59.613Z,14.50
2018-05-13T05:32:25.869Z,14.30
2018-05-13T05:34:52.807Z,14.50
2018-05-13T05:37:19.445Z,14.50
2018-05-13T05:39:45.682Z,14.60
2018-05-13T05:42:12.826Z,14.70
2018-05-13T05:44:39.161Z,14.70
2018-05-13T05:47:06.240Z,14.80
2018-05-13T05:49:33.608Z,14.80
2018-05-13T05:52:00.267Z,14.80
2018-05-13T05:54:26.880Z,15.00
2018-05-13T05:56:53.518Z,15.10
2018-05-13T05:59:19.905Z,15.10
2018-05-13T06:01:47.657Z,15.20
2018-05-13T06:04:13.879Z,15.30
2018-05-13T06:06:40.724Z,15.40
2018-05-13T06:09:07.117Z,15.50
2018-05-13T06:11:34.092Z,15.60
2018-05-13T06:14:00.387Z,15.80
2018-05-13T06:16:27.022Z,15.80
2018-05-13T06:18:53.983Z,16.00
2018-05-13T06:21:21.058Z,16.20
2018-05-13T06:23:47.476Z,16.20
2018-05-13T06:26:13.957Z,16.30
2018-05-13T06:28:41.003Z,16.30
2018-05-13T06:31:07.276Z,16.10
2018-05-13T06:33:34.965Z,16.60
2018-05-13T06:36:02.017Z,16.90
2018-05-13T06:38:29.066Z,17.00
2018-05-13T06:40:56.140Z,17.10
2018-05-13T06:43:23.606Z,17.20
2018-05-13T06:48:18.202Z,17.40
2018-05-13T06:50:45.161Z,17.70
2018-05-13T06:53:18.784Z,17.80
2018-05-13T06:55:47.262Z,17.90
2018-05-13T06:58:14.159Z,17.90
2018-05-13T07:00:40.383Z,17.70
2018-05-13T07:05:38.364Z,17.60
2018-05-13T07:08:04.535Z,17.50
2018-05-13T07:12:59.144Z,17.50
2018-05-13T07:15:25.335Z,17.30
2018-05-13T07:17:52.036Z,17.30
2018-05-13T07:20:18.325Z,17.50
2018-05-13T07:25:19.748Z,17.60
2018-05-13T07:27:48.337Z,17.60
2018-05-13T07:30:14.814Z,17.60
2018-05-13T07:32:41.637Z,17.70
2018-05-13T07:35:08.332Z,17.80
2018-05-13T07:37:34.902Z,18.10
2018-05-13T07:40:01.812Z,18.10
2018-05-13T07:42:34.746Z,18.20
2018-05-13T07:45:11.101Z,18.50
2018-05-13T07:47:53.821Z,18.60
2018-05-13T07:50:20.226Z,18.80
2018-05-13T07:52:48.084Z,18.90
2018-05-13T07:55:14.677Z,19.10
2018-05-13T07:57:43.094Z,19.10
2018-05-13T08:00:10.782Z,19.20
2018-05-13T08:02:37.308Z,19.20
2018-05-13T08:05:03.825Z,19.30
2018-05-13T08:07:30.488Z,19.50
2018-05-13T08:09:58.039Z,19.80
2018-05-13T08:12:27.429Z,20.50
2018-05-13T08:14:54.172Z,21.90
2018-05-13T08:17:21.735Z,23.20
2018-05-13T08:19:49.125Z,24.00
2018-05-13T08:22:15.645Z,24.40
2018-05-13T08:24:42.262Z,25.10
2018-05-13T08:27:08.873Z,25.70
2018-05-13T08:29:36.205Z,25.70
2018-05-13T08:32:03.596Z,26.00
2018-05-13T08:34:30.136Z,26.10
2018-05-13T08:36:56.723Z,25.80
2018-05-13T08:39:23.131Z,25.90
2018-05-13T08:41:49.541Z,26.20
2018-05-13T08:44:17.229Z,26.80
2018-05-13T08:46:44.885Z,27.40
2018-05-13T08:49:11.376Z,28.10
2018-05-13T08:51:37.829Z,28.20
2018-05-13T08:54:05.064Z,28.70
2018-05-13T08:56:31.850Z,28.70
2018-05-13T09:01:26.826Z,28.60
2018-05-13T09:03:53.998Z,28.90
2018-05-13T09:06:21.000Z,29.30
2018-05-13T09:08:47.858Z,29.70
2018-05-13T09:13:42.478Z,31.20
2018-05-13T09:16:10.449Z,31.40
2018-05-13T09:18:36.884Z,31.40
2018-05-13T09:21:04.191Z,31.40
2018-05-13T09:23:31.461Z,31.20
2018-05-13T09:25:58.586Z,30.80
2018-05-13T09:28:25.410Z,31.00
2018-05-13T09:30:51.962Z,30.90
2018-05-13T09:33:19.167Z,30.80
2018-05-13T09:35:45.578Z,30.70
2018-05-13T09:38:12.167Z,30.40
2018-05-13T09:40:39.712Z,30.50
2018-05-13T09:45:35.676Z,31.50
2018-05-13T09:48:02.202Z,32.00
2018-05-13T09:50:28.816Z,32.20
2018-05-13T09:52:55.482Z,31.90
2018-05-13T09:55:22.427Z,32.20
2018-05-13T09:57:49.684Z,32.10
2018-05-13T10:00:17.372Z,32.10
2018-05-13T10:02:44.905Z,31.60
2018-05-13T10:07:40.436Z,31.50
2018-05-13T10:10:07.694Z,32.00
2018-05-13T10:12:34.381Z,32.60
2018-05-13T10:15:02.265Z,32.20
2018-05-13T10:17:29.379Z,32.20
2018-05-13T10:19:56.864Z,32.40
2018-05-13T10:22:23.901Z,32.40
2018-05-13T10:24:51.569Z,32.40
2018-05-13T10:27:18.224Z,32.60
2018-05-13T10:29:45.067Z,32.50
2018-05-13T10:32:11.719Z,32.80
2018-05-13T10:34:38.740Z,33.10
2018-05-13T10:37:05.384Z,33.10
2018-05-13T10:39:33.049Z,32.90
2018-05-13T10:41:59.542Z,33.10
2018-05-13T10:44:26.919Z,32.70
2018-05-13T10:46:53.953Z,31.70
2018-05-13T10:49:20.454Z,32.60
2018-05-13T10:51:47.198Z,32.60
2018-05-13T10:54:13.751Z,33.00
2018-05-13T10:56:40.263Z,34.30
2018-05-13T10:59:08.314Z,34.40
2018-05-13T11:01:35.126Z,34.10
2018-05-13T11:04:01.724Z,33.70
2018-05-13T11:06:28.722Z,34.60
2018-05-13T11:08:55.889Z,34.20
2018-05-13T11:11:22.829Z,34.10
2018-05-13T11:13:50.056Z,34.30
2018-05-13T11:16:17.209Z,34.90
2018-05-13T11:18:43.776Z,34.70
2018-05-13T11:21:10.199Z,34.30
2018-05-13T11:23:36.858Z,33.80
2018-05-13T11:26:04.131Z,34.40
2018-05-13T11:28:30.745Z,34.70
2018-05-13T11:30:57.243Z,34.50
2018-05-13T11:33:23.863Z,34.80
2018-05-13T11:35:50.684Z,35.00
2018-05-13T11:38:17.212Z,34.70
2018-05-13T11:40:45.027Z,34.70
2018-05-13T11:43:12.777Z,35.10
2018-05-13T11:45:40.611Z,35.10
2018-05-13T11:48:08.198Z,35.50
2018-05-13T11:50:35.375Z,34.60
2018-05-13T11:53:02.367Z,34.80
2018-05-13T11:55:29.077Z,34.60
2018-05-13T11:57:57.521Z,34.30
2018-05-13T12:00:24.861Z,34.40
2018-05-13T12:02:51.272Z,34.80
2018-05-13T12:05:32.859Z,34.60
2018-05-13T12:08:02.200Z,34.80
2018-05-13T12:10:29.010Z,34.90
2018-05-13T12:12:55.617Z,34.50
2018-05-13T12:15:22.422Z,34.60
2018-05-13T12:17:49.629Z,34.60
2018-05-13T12:20:16.517Z,34.50
2018-05-13T12:22:43.369Z,34.10
2018-05-13T12:25:09.850Z,34.90
2018-05-13T12:27:36.535Z,35.20
2018-05-13T12:32:31.309Z,35.40
2018-05-13T12:34:57.958Z,36.00
2018-05-13T12:37:25.259Z,36.10
2018-05-13T12:39:51.670Z,35.60
2018-05-13T12:44:52.407Z,34.20
2018-05-13T12:47:19.594Z,34.20
2018-05-13T12:49:46.107Z,34.10
2018-05-13T12:52:12.601Z,34.10
2018-05-13T12:54:39.546Z,33.80
2018-05-13T12:57:05.975Z,33.70
2018-05-13T12:59:32.440Z,33.80
2018-05-13T13:01:58.964Z,33.60
2018-05-13T13:04:25.817Z,33.10
2018-05-13T13:06:52.978Z,33.30
2018-05-13T13:09:20.082Z,32.80
2018-05-13T13:11:47.932Z,32.80
2018-05-13T13:14:14.437Z,33.30
2018-05-13T13:16:41.120Z,33.60
2018-05-13T13:19:08.303Z,34.10
2018-05-13T13:21:34.911Z,34.30
2018-05-13T13:24:02.233Z,34.80
2018-05-13T13:26:29.040Z,34.90
2018-05-13T13:28:55.881Z,34.20
2018-05-13T13:31:22.378Z,34.40
2018-05-13T13:33:49.646Z,34.30
2018-05-13T13:36:18.257Z,34.30
2018-05-13T13:38:45.307Z,35.00
2018-05-13T13:41:12.423Z,34.80
2018-05-13T13:43:39.269Z,34.90
2018-05-13T13:46:07.027Z,34.90
2018-05-13T13:51:13.468Z,34.80
2018-05-13T13:53:40.014Z,34.70
2018-05-13T13:58:36.565Z,35.70
2018-05-13T14:01:03.244Z,36.40
2018-05-13T14:03:30.134Z,35.80
2018-05-13T14:05:57.105Z,34.70
2018-05-13T14:08:24.342Z,34.40
2018-05-13T14:10:52.118Z,34.60
2018-05-13T14:13:18.710Z,34.40
2018-05-13T14:15:46.159Z,34.10
2018-05-13T14:18:12.716Z,34.20
2018-05-13T14:20:39.447Z,35.40
2018-05-13T14:23:05.972Z,35.70
2018-05-13T15:10:14.019Z,32.00
2018-05-13T15:12:40.514Z,31.50
2018-05-13T15:15:07.037Z,31.40
2018-05-13T15:17:35.385Z,31.90
2018-05-13T15:20:02.033Z,32.00
2018-05-13T15:22:32.969Z,32.40
2018-05-13T15:24:59.624Z,32.80
2018-05-13T15:27:27.836Z,33.00
2018-05-13T15:29:54.907Z,33.10
2018-05-13T15:32:21.694Z,32.70
2018-05-13T15:34:48.442Z,32.10
2018-05-13T15:37:16.101Z,31.60
2018-05-13T15:39:42.925Z,31.40
2018-05-13T15:42:09.691Z,31.10
2018-05-13T15:44:44.034Z,31.20
2018-05-13T15:47:10.575Z,31.20
2018-05-13T15:52:05.318Z,31.00
2018-05-13T15:57:01.128Z,31.00
2018-05-13T15:59:29.182Z,30.90
2018-05-13T16:01:56.056Z,30.40
2018-05-13T16:04:23.309Z,30.50
2018-05-13T16:06:49.814Z,29.90
2018-05-13T16:14:12.673Z,30.20
2018-05-13T16:16:40.362Z,30.40
2018-05-13T16:19:06.858Z,29.50
2018-05-13T16:21:33.295Z,29.00
2018-05-13T16:24:00.014Z,29.00
2018-05-13T16:28:54.790Z,29.00
2018-05-13T16:31:21.248Z,28.90
2018-05-13T16:33:47.656Z,28.90
2018-05-13T16:36:14.340Z,28.80
2018-05-13T16:38:40.760Z,28.80
2018-05-13T16:41:07.409Z,28.30
2018-05-13T16:43:33.887Z,28.20
2018-05-13T16:46:00.354Z,27.90
2018-05-13T16:48:26.750Z,28.00
2018-05-13T16:50:53.160Z,28.40
2018-05-13T16:53:20.010Z,28.20
2018-05-13T16:55:47.043Z,28.10
2018-05-13T16:58:13.901Z,28.60
2018-05-13T17:00:41.134Z,28.30
2018-05-13T17:03:09.195Z,28.40
2018-05-13T17:05:36.130Z,28.40
2018-05-13T17:08:03.782Z,28.30
2018-05-13T17:12:58.805Z,28.30
2018-05-13T17:15:26.094Z,28.70
2018-05-13T17:17:53.403Z,28.70
2018-05-13T17:20:20.600Z,28.20
2018-05-13T17:22:47.947Z,28.00
2018-05-13T17:25:14.541Z,28.30
2018-05-13T17:27:41.743Z,27.60
2018-05-13T17:30:08.243Z,27.70
2018-05-13T17:32:35.494Z,27.50
2018-05-13T17:35:02.084Z,27.50
2018-05-13T17:37:28.797Z,27.20
2018-05-13T17:39:56.033Z,27.20
2018-05-13T17:47:19.115Z,26.60
2018-05-13T17:52:13.996Z,26.70
2018-05-13T17:54:42.297Z,26.30
2018-05-13T17:57:09.304Z,26.60
2018-05-13T18:02:04.193Z,26.50
2018-05-13T18:04:32.446Z,25.90
2018-05-13T18:06:59.206Z,25.70
2018-05-13T18:09:25.830Z,25.30
2018-05-13T18:11:52.651Z,25.20
2018-05-13T18:14:19.762Z,25.30
2018-05-13T18:16:46.571Z,25.00
2018-05-13T18:19:13.495Z,24.70
2018-05-13T18:21:40.210Z,24.70
2018-05-13T18:24:07.063Z,24.40
2018-05-13T18:26:33.599Z,24.00
2018-05-13T18:29:00.510Z,23.30
2018-05-13T18:31:28.766Z,22.70
2018-05-13T18:33:55.893Z,22.20
2018-05-13T18:38:50.821Z,21.80
2018-05-13T18:41:18.192Z,21.50
2018-05-13T18:43:45.498Z,21.30
2018-05-13T18:46:12.078Z,20.90
2018-05-13T18:51:07.020Z,20.20
2018-05-13T18:53:34.114Z,20.00
2018-05-13T18:56:00.556Z,19.80
2018-05-13T18:58:27.153Z,19.60
2018-05-13T19:05:50.172Z,19.10
2018-05-13T19:08:17.281Z,18.90
2018-05-13T19:10:44.279Z,18.80
2018-05-13T19:15:39.082Z,18.50
2018-05-13T19:18:05.590Z,18.40
2018-05-13T19:20:32.097Z,18.40
2018-05-13T19:22:58.603Z,18.10
2018-05-13T19:25:25.121Z,18.20
2018-05-13T19:27:52.368Z,18.00
2018-05-13T19:30:18.803Z,17.90
2018-05-13T19:35:13.536Z,17.70
2018-05-13T19:37:39.962Z,17.70
2018-05-13T19:40:06.708Z,17.50
2018-05-13T19:42:34.680Z,17.50
2018-05-13T19:45:02.107Z,17.30
2018-05-13T19:47:28.874Z,17.10
2018-05-13T19:49:56.748Z,17.10
2018-05-13T19:52:24.062Z,17.10
2018-05-13T19:54:51.288Z,17.00
2018-05-13T19:57:18.361Z,16.90
2018-05-13T19:59:44.860Z,16.80
2018-05-13T20:02:11.497Z,16.50
2018-05-13T20:04:38.124Z,16.50
2018-05-13T20:07:04.728Z,16.50
2018-05-13T20:09:31.702Z,16.30
2018-05-13T20:11:59.402Z,16.10
2018-05-13T20:16:54.328Z,16.00
2018-05-13T20:19:21.004Z,15.80
2018-05-13T20:21:47.705Z,15.90
2018-05-13T20:24:15.315Z,15.80
2018-05-13T20:26:42.289Z,15.70
2018-05-13T20:29:09.316Z,15.30
2018-05-13T20:31:36.107Z,15.20
2018-05-13T20:34:03.556Z,15.20
2018-05-13T20:36:31.361Z,15.30
2018-05-13T20:38:58.993Z,15.30
2018-05-13T20:41:25.533Z,15.30
2018-05-13T20:43:52.803Z,15.30
2018-05-13T20:46:19.458Z,15.10
2018-05-13T20:48:46.187Z,15.20
2018-05-13T20:51:14.006Z,15.30
2018-05-13T20:53:41.371Z,15.00
2018-05-13T20:56:07.917Z,15.10
2018-05-13T20:58:34.587Z,14.90
2018-05-13T21:01:01.160Z,15.00
2018-05-13T21:03:27.724Z,15.10
2018-05-13T21:05:54.285Z,15.10
2018-05-13T21:10:49.205Z,15.00
2018-05-13T21:13:16.112Z,14.90
2018-05-13T21:15:43.071Z,14.80
2018-05-13T21:18:09.945Z,14.90
2018-05-13T21:20:36.647Z,14.80
2018-05-13T21:23:03.259Z,14.70
2018-05-13T21:25:29.770Z,14.60
2018-05-13T21:27:56.734Z,14.70
2018-05-13T21:30:24.064Z,14.70
2018-05-13T21:32:51.307Z,14.70
2018-05-13T21:35:17.833Z,14.50
2018-05-13T21:37:44.784Z,14.50
2018-05-13T21:42:39.593Z,14.10
2018-05-13T21:45:07.356Z,13.90
2018-05-13T21:47:33.964Z,14.00
2018-05-13T21:50:00.716Z,14.50
2018-05-13T21:52:27.261Z,13.90
2018-05-13T21:54:55.325Z,14.00
2018-05-13T21:57:21.865Z,14.10
2018-05-13T21:59:48.411Z,14.10
2018-05-13T22:02:16.644Z,14.10
2018-05-13T22:04:54.331Z,14.00
2018-05-13T22:07:21.777Z,14.10
2018-05-13T22:09:48.292Z,13.90
2018-05-13T22:12:14.810Z,13.80
2018-05-13T22:14:42.433Z,13.60
2018-05-13T22:17:10.000Z,13.60
2018-05-13T22:19:37.233Z,13.50
2018-05-13T22:22:04.413Z,13.60
2018-05-13T22:24:31.781Z,13.50
2018-05-13T22:26:59.186Z,13.40
2018-05-13T22:29:25.783Z,13.40
2018-05-13T22:31:52.445Z,13.60
2018-05-13T22:34:19.660Z,13.50
2018-05-13T22:36:46.131Z,13.50
2018-05-13T22:39:12.665Z,13.50
2018-05-13T22:41:39.204Z,13.20
2018-05-13T22:44:05.542Z,13.30
2018-05-13T22:46:32.821Z,13.40
2018-05-13T22:48:59.248Z,13.40
2018-05-13T22:51:27.045Z,13.40
2018-05-13T22:53:53.405Z,13.50
2018-05-13T22:56:19.838Z,13.50
2018-05-13T22:58:46.546Z,13.60
2018-05-13T23:01:14.007Z,13.60
2018-05-13T23:03:40.510Z,13.50
2018-05-13T23:06:06.969Z,13.40
2018-05-13T23:08:33.487Z,13.60
2018-05-13T23:15:57.249Z,13.40
2018-05-13T23:18:23.753Z,13.10
2018-05-13T23:20:50.201Z,13.20
2018-05-13T23:23:16.585Z,13.40
2018-05-13T23:25:43.013Z,13.20
2018-05-13T23:28:09.857Z,13.10
2018-05-13T23:30:36.230Z,13.20
2018-05-13T23:33:02.638Z,13.30
2018-05-13T23:37:57.604Z,13.20
2018-05-13T23:40:24.685Z,13.20
2018-05-13T23:42:51.073Z,13.10
2018-05-13T23:45:17.444Z,13.60
2018-05-13T23:47:43.809Z,13.30
2018-05-13T23:50:10.518Z,13.20
2018-05-13T23:52:37.358Z,13.10
2018-05-13T23:55:05.312Z,12.90
2018-05-13T23:57:32.839Z,12.80
